createdAt,value
2018-08-20T00:04:18.854Z,39.7
2018-08-20T00:09:16.672Z,39.7
2018-08-20T00:14:14.594Z,39.8
2018-08-20T00:19:12.496Z,39.8
2018-08-20T00:24:10.559Z,39.8
2018-08-20T00:29:08.505Z,39.8
2018-08-20T00:34:06.540Z,39.9
2018-08-20T00:39:04.423Z,39.9
2018-08-20T00:44:02.443Z,39.9
2018-08-20T00:49:00.414Z,39.9
2018-08-20T00:53:58.329Z,40
2018-08-20T00:58:56.395Z,40
2018-08-20T01:03:54.322Z,40
2018-08-20T01:08:52.227Z,40.1
2018-08-20T01:13:50.113Z,40.1
2018-08-20T01:18:48.109Z,40.1
2018-08-20T01:23:46.141Z,40.2
2018-08-20T01:28:43.761Z,40.2
2018-08-20T01:33:41.581Z,40.2
2018-08-20T01:38:39.525Z,40.2
2018-08-20T01:43:37.524Z,40.3
2018-08-20T01:48:35.616Z,40.3
2018-08-20T01:53:33.629Z,40.3
2018-08-20T01:58:31.712Z,40.3
2018-08-20T02:03:29.709Z,40.4
2018-08-20T02:08:27.729Z,40.4
2018-08-20T02:13:25.675Z,40.4
2018-08-20T02:18:23.469Z,40.5
2018-08-20T02:23:21.590Z,40.5
2018-08-20T02:28:19.613Z,40.5
2018-08-20T02:33:17.510Z,40.6
2018-08-20T02:38:15.530Z,40.6
2018-08-20T02:43:13.520Z,40.6
2018-08-20T02:48:11.400Z,40.7
2018-08-20T02:53:09.417Z,40.7
2018-08-20T02:58:06.971Z,40.7
2018-08-20T03:03:04.812Z,40.8
2018-08-20T03:08:02.697Z,40.8
2018-08-20T03:13:00.673Z,40.8
2018-08-20T03:17:58.473Z,40.8
2018-08-20T03:22:56.247Z,40.8
2018-08-20T03:27:54.227Z,40.9
2018-08-20T03:32:52.187Z,40.9
2018-08-20T03:37:50.111Z,40.9
2018-08-20T03:42:47.926Z,40.9
2018-08-20T03:47:45.903Z,40.9
2018-08-20T03:52:43.903Z,40.9
2018-08-20T03:57:41.183Z,41
2018-08-20T04:02:39.084Z,41
2018-08-20T04:07:36.802Z,41
2018-08-20T04:12:34.660Z,41
2018-08-20T04:17:32.622Z,41
2018-08-20T04:22:30.631Z,41
2018-08-20T04:27:28.663Z,41
2018-08-20T04:32:26.605Z,41.1
2018-08-20T04:37:24.180Z,41
2018-08-20T04:42:22.088Z,41
2018-08-20T04:47:20.056Z,41
2018-08-20T04:52:17.937Z,41
2018-08-20T04:57:15.895Z,41
2018-08-20T05:02:13.931Z,41
2018-08-20T05:07:12.210Z,41.1
2018-08-20T05:12:10.259Z,41.1
2018-08-20T05:17:07.987Z,41.2
2018-08-20T05:22:05.630Z,41.3
2018-08-20T05:27:03.935Z,41.4
2018-08-20T05:32:01.995Z,41.5
2018-08-20T05:36:59.928Z,41.6
2018-08-20T05:41:57.835Z,41.7
2018-08-20T05:46:56.035Z,41.8
2018-08-20T05:51:53.841Z,41.9
2018-08-20T05:56:52.046Z,42
2018-08-20T06:01:51.076Z,42.1
2018-08-20T06:06:49.562Z,42.2
2018-08-20T06:11:50.625Z,42.3
2018-08-20T06:16:48.698Z,42.3
2018-08-20T06:21:46.653Z,42.5
2018-08-20T06:26:44.701Z,42.5
2018-08-20T06:31:42.753Z,42.7
2018-08-20T08:52:48.671Z,44
2018-08-20T08:57:46.598Z,44.2
2018-08-20T09:02:45.068Z,44.3
2018-08-20T09:07:43.063Z,44.4
2018-08-20T09:12:40.772Z,44.4
2018-08-20T09:17:38.857Z,44.4
2018-08-20T09:22:36.850Z,44.4
2018-08-20T09:27:35.089Z,44.4
2018-08-20T09:32:33.040Z,44.3
2018-08-20T09:37:31.331Z,44.2
2018-08-20T09:42:29.478Z,44.1
2018-08-20T09:47:27.547Z,44.1
2018-08-20T09:52:25.571Z,43.9
2018-08-20T09:57:23.636Z,43.8
2018-08-20T10:02:21.566Z,43.6
2018-08-20T10:07:20.159Z,43.5
2018-08-20T10:42:38.135Z,42.6
2018-08-20T10:47:36.144Z,42.3
2018-08-20T10:52:34.404Z,42.1
2018-08-20T10:57:32.454Z,42
2018-08-20T11:02:30.644Z,41.8
2018-08-20T11:07:28.798Z,41.7
2018-08-20T11:12:27.215Z,41.5
2018-08-20T11:17:25.499Z,41.4
2018-08-20T11:22:23.636Z,41.3
2018-08-20T11:27:21.750Z,41.2
2018-08-20T11:32:19.986Z,41.1
2018-08-20T11:37:18.249Z,40.9
2018-08-20T11:42:16.381Z,40.8
2018-08-20T11:47:14.455Z,40.6
2018-08-20T11:52:12.575Z,40.5
2018-08-20T11:57:10.632Z,40.4
2018-08-20T12:02:08.636Z,40.3
2018-08-20T12:07:07.174Z,40.2
2018-08-20T12:12:05.201Z,40.3
2018-08-20T12:17:03.109Z,40.3
2018-08-20T12:22:01.085Z,40.1
2018-08-20T12:26:59.169Z,40
2018-08-20T12:31:57.044Z,39.7
2018-08-20T12:36:55.218Z,39.4
2018-08-20T12:41:53.587Z,39
2018-08-20T12:46:51.644Z,38.9
2018-08-20T12:51:49.777Z,39
2018-08-20T12:56:47.796Z,39.1
2018-08-20T13:01:45.786Z,39.2
2018-08-20T13:06:43.903Z,39.3
2018-08-20T13:11:42.251Z,39.3
2018-08-20T13:16:40.355Z,39.4
2018-08-20T13:21:38.609Z,39.5
2018-08-20T13:26:36.674Z,39.5
2018-08-20T13:31:34.772Z,39.5
2018-08-20T13:36:33.069Z,39.5
2018-08-20T13:41:31.030Z,39.6
2018-08-20T13:46:29.110Z,39.6
2018-08-20T13:51:27.108Z,39.6
2018-08-20T13:56:25.480Z,39.6
2018-08-20T14:01:23.396Z,39.6
2018-08-20T14:06:22.905Z,39.6
2018-08-20T14:11:22.239Z,39.6
2018-08-20T14:16:20.277Z,39.6
2018-08-20T14:21:18.497Z,39.6
2018-08-20T14:26:16.546Z,39.6
2018-08-20T14:31:14.579Z,39.6
2018-08-20T14:36:12.898Z,39.5
2018-08-20T14:41:11.981Z,39.5
2018-08-20T14:46:10.121Z,39.3
2018-08-20T14:51:08.591Z,39.3
2018-08-20T14:56:07.376Z,39.2
2018-08-20T15:01:05.312Z,39.2
2018-08-20T15:06:03.344Z,39.2
2018-08-20T15:11:01.625Z,39.1
2018-08-20T15:15:59.757Z,39.1
2018-08-20T15:20:57.955Z,39
2018-08-20T15:25:55.894Z,39
2018-08-20T15:30:53.953Z,38.9
2018-08-20T15:35:52.051Z,38.9
2018-08-20T15:40:49.894Z,38.9
2018-08-20T15:45:47.984Z,38.8
2018-08-20T15:50:46.057Z,38.8
2018-08-20T15:55:43.941Z,38.8
2018-08-20T16:00:42.035Z,38.7
2018-08-20T16:05:40.100Z,38.8
2018-08-20T16:10:38.412Z,38.8
2018-08-20T16:15:36.390Z,38.7
2018-08-20T16:20:34.067Z,38.7
2018-08-20T16:25:32.228Z,38.7
2018-08-20T16:30:30.287Z,38.7
2018-08-20T16:35:28.864Z,38.7
2018-08-20T16:40:26.811Z,38.7
2018-08-20T16:45:24.970Z,38.8
2018-08-20T16:50:23.095Z,38.8
2018-08-20T16:55:21.810Z,38.8
2018-08-20T17:00:19.932Z,38.8
2018-08-20T17:05:18.026Z,38.8
2018-08-20T17:10:16.131Z,38.8
2018-08-20T17:15:13.831Z,38.8
2018-08-20T17:20:12.260Z,38.8
2018-08-20T17:25:10.315Z,38.9
2018-08-20T17:30:09.956Z,38.8
2018-08-20T17:35:08.064Z,38.9
2018-08-20T17:40:06.423Z,38.9
2018-08-20T17:45:04.318Z,38.9
2018-08-20T17:50:02.303Z,38.9
2018-08-20T17:55:00.074Z,38.9
2018-08-20T17:59:58.210Z,38.9
2018-08-20T18:04:56.418Z,38.9
2018-08-20T18:09:54.693Z,38.9
2018-08-20T18:14:52.734Z,38.9
2018-08-20T18:19:50.989Z,38.9
2018-08-20T18:24:48.897Z,38.9
2018-08-20T18:29:46.865Z,39
2018-08-20T18:34:45.090Z,39
2018-08-20T18:39:43.565Z,39
2018-08-20T18:44:42.281Z,39
2018-08-20T18:49:41.209Z,39
2018-08-20T18:54:39.224Z,39
2018-08-20T18:59:37.160Z,39.1
2018-08-20T19:04:34.915Z,39.1
2018-08-20T19:09:33.523Z,39.2
2018-08-20T19:14:32.167Z,39.2
2018-08-20T19:19:30.375Z,39.2
2018-08-20T19:24:28.334Z,39.2
2018-08-20T19:29:26.222Z,39.3
2018-08-20T19:34:24.025Z,39.3
2018-08-20T19:39:21.843Z,39.3
2018-08-20T19:44:20.038Z,39.4
2018-08-20T19:49:17.823Z,39.4
2018-08-20T19:54:15.787Z,39.4
2018-08-20T19:59:13.833Z,39.5
2018-08-20T20:04:11.973Z,39.5
2018-08-20T20:09:10.136Z,39.5
2018-08-20T20:14:08.243Z,39.6
2018-08-20T20:19:06.236Z,39.6
2018-08-20T20:24:04.168Z,39.6
2018-08-20T20:29:02.139Z,39.7
2018-08-20T20:33:59.877Z,39.7
2018-08-20T20:38:57.958Z,39.8
2018-08-20T20:43:55.908Z,39.8
2018-08-20T20:48:53.877Z,39.8
2018-08-20T20:53:51.747Z,39.9
2018-08-20T20:58:49.135Z,39.9
2018-08-20T21:03:47.101Z,39.9
2018-08-20T21:08:44.990Z,40
2018-08-20T21:13:42.918Z,40
2018-08-20T21:18:40.927Z,40.1
2018-08-20T21:23:39.004Z,40.1
2018-08-20T21:28:37.017Z,40.1
2018-08-20T21:33:35.030Z,40.2
2018-08-20T21:38:33.223Z,40.2
2018-08-20T21:43:30.595Z,40.2
2018-08-20T21:48:28.427Z,40.3
2018-08-20T21:53:26.504Z,40.3
2018-08-20T21:58:24.431Z,40.3
2018-08-20T22:03:22.463Z,40.3
2018-08-20T22:08:20.447Z,40.4
2018-08-20T22:13:18.247Z,40.4
2018-08-20T22:18:16.254Z,40.4
2018-08-20T22:23:39.596Z,40.5
2018-08-20T22:28:34.006Z,40.3
2018-08-20T22:33:31.813Z,40.4
2018-08-20T22:38:29.744Z,40.5
2018-08-20T22:43:27.751Z,40.5
2018-08-20T22:48:25.630Z,40.6
2018-08-20T22:53:23.544Z,40.6
2018-08-20T22:58:21.688Z,40.6
2018-08-20T23:03:19.653Z,40.7
2018-08-20T23:08:17.826Z,40.7
2018-08-20T23:13:15.869Z,40.7
2018-08-20T23:18:13.818Z,40.8
2018-08-20T23:23:11.799Z,40.8
2018-08-20T23:28:09.674Z,40.8
2018-08-20T23:33:07.653Z,40.8
2018-08-20T23:38:05.629Z,40.9
2018-08-20T23:43:03.711Z,40.9
2018-08-20T23:48:01.901Z,40.9
2018-08-20T23:52:59.866Z,41
2018-08-20T23:57:57.534Z,41
